createdAt,value
2023-05-04T00:02:03.716Z,74.80
2023-05-04T00:04:30.584Z,74.80
2023-05-04T00:06:57.296Z,74.80
2023-05-04T00:09:23.982Z,74.80
2023-05-04T00:11:50.658Z,74.70
2023-05-04T00:14:17.327Z,74.70
2023-05-04T00:16:44.215Z,74.70
2023-05-04T00:19:11.114Z,74.70
2023-05-04T00:21:37.772Z,74.70
2023-05-04T00:24:04.771Z,74.70
2023-05-04T00:26:31.456Z,74.60
2023-05-04T00:28:58.104Z,74.60
2023-05-04T00:31:24.807Z,74.60
2023-05-04T00:33:51.617Z,74.50
2023-05-04T00:36:18.408Z,74.40
2023-05-04T00:38:50.121Z,74.50
2023-05-04T00:41:18.351Z,74.50
2023-05-04T00:43:45.538Z,74.40
2023-05-04T00:46:12.657Z,74.40
2023-05-04T00:48:44.928Z,74.40
2023-05-04T00:51:13.955Z,74.30
2023-05-04T00:53:41.276Z,74.30
2023-05-04T00:56:08.680Z,74.30
2023-05-04T00:58:35.567Z,74.20
2023-05-04T01:01:03.319Z,74.20
2023-05-04T01:03:31.306Z,74.30
2023-05-04T01:06:11.034Z,74.20
2023-05-04T01:08:55.802Z,74.20
2023-05-04T01:11:32.238Z,74.20
2023-05-04T01:14:01.645Z,74.10
2023-05-04T01:16:29.766Z,74.10
2023-05-04T01:18:56.533Z,74.10
2023-05-04T01:21:23.226Z,74.00
2023-05-04T01:23:50.499Z,73.90
2023-05-04T01:26:32.189Z,74.00
2023-05-04T01:29:21.038Z,73.90
2023-05-04T01:31:49.772Z,73.90
2023-05-04T01:34:17.181Z,73.80
2023-05-04T01:36:45.405Z,73.80
2023-05-04T01:39:12.158Z,73.80
2023-05-04T01:41:38.852Z,73.80
2023-05-04T01:44:05.650Z,73.70
2023-05-04T01:46:32.402Z,73.70
2023-05-04T01:49:00.158Z,73.70
2023-05-04T01:51:26.831Z,73.70
2023-05-04T01:53:53.495Z,73.60
2023-05-04T01:56:20.698Z,73.60
2023-05-04T01:58:47.675Z,73.60
2023-05-04T02:01:14.417Z,73.60
2023-05-04T02:03:41.794Z,73.50
2023-05-04T02:06:10.040Z,73.50
2023-05-04T02:08:36.898Z,73.50
2023-05-04T02:11:03.610Z,73.40
2023-05-04T02:13:30.334Z,73.40
2023-05-04T02:15:57.147Z,73.40
2023-05-04T02:18:23.850Z,73.40
2023-05-04T02:20:50.555Z,73.40
2023-05-04T02:23:17.215Z,73.40
2023-05-04T02:25:43.897Z,73.40
2023-05-04T02:28:10.590Z,73.30
2023-05-04T02:30:37.484Z,73.20
2023-05-04T02:33:04.373Z,73.20
2023-05-04T02:35:31.261Z,73.20
2023-05-04T02:37:57.964Z,73.20
2023-05-04T02:40:25.095Z,73.10
2023-05-04T02:42:52.232Z,73.20
2023-05-04T02:45:19.038Z,73.00
2023-05-04T02:47:45.809Z,73.00
2023-05-04T02:50:12.635Z,73.10
2023-05-04T02:52:39.409Z,73.00
2023-05-04T02:55:06.684Z,73.10
2023-05-04T02:57:33.637Z,73.00
2023-05-04T03:00:04.766Z,72.90
2023-05-04T03:02:31.639Z,72.90
2023-05-04T03:04:58.442Z,72.90
2023-05-04T03:07:26.280Z,72.80
2023-05-04T03:09:52.949Z,72.80
2023-05-04T03:12:20.831Z,72.80
2023-05-04T03:14:48.138Z,72.70
2023-05-04T03:17:15.268Z,72.70
2023-05-04T03:19:42.244Z,73.30
2023-05-04T03:22:10.430Z,72.70
2023-05-04T03:24:37.798Z,72.60
2023-05-04T03:27:04.607Z,72.70
2023-05-04T03:29:32.409Z,72.60
2023-05-04T03:31:59.648Z,72.50
2023-05-04T03:34:26.563Z,72.50
2023-05-04T03:36:59.457Z,72.50
2023-05-04T03:39:26.258Z,72.50
2023-05-04T03:41:53.576Z,72.50
2023-05-04T03:44:20.281Z,72.50
2023-05-04T03:46:48.020Z,72.40
2023-05-04T03:49:15.063Z,72.30
2023-05-04T03:51:42.309Z,72.40
2023-05-04T03:54:09.001Z,72.90
2023-05-04T03:56:35.849Z,72.30
2023-05-04T03:59:02.668Z,72.30
2023-05-04T04:01:31.490Z,72.30
2023-05-04T04:03:58.324Z,72.30
2023-05-04T04:06:25.137Z,72.20
2023-05-04T04:08:52.664Z,72.20
2023-05-04T04:11:19.382Z,72.10
2023-05-04T04:13:46.059Z,72.10
2023-05-04T04:16:12.758Z,72.10
2023-05-04T04:18:39.617Z,72.00
2023-05-04T04:21:06.564Z,72.00
2023-05-04T04:23:33.251Z,72.00
2023-05-04T04:25:59.929Z,72.00
2023-05-04T04:28:26.635Z,71.90
2023-05-04T04:30:53.344Z,71.90
2023-05-04T04:33:20.000Z,71.90
2023-05-04T04:35:48.147Z,71.90
2023-05-04T04:38:14.908Z,71.80
2023-05-04T04:40:42.034Z,71.80
2023-05-04T04:43:08.755Z,71.80
2023-05-04T04:45:35.688Z,71.70
2023-05-04T04:48:03.205Z,71.70
2023-05-04T04:50:30.080Z,71.70
2023-05-04T04:52:56.853Z,71.60
2023-05-04T04:55:25.780Z,71.60
2023-05-04T04:57:52.946Z,71.60
2023-05-04T05:00:19.768Z,71.60
2023-05-04T05:02:46.653Z,71.60
2023-05-04T05:05:13.699Z,71.60
2023-05-04T05:07:40.465Z,71.60
2023-05-04T05:10:08.554Z,71.50
2023-05-04T05:12:35.693Z,71.60
2023-05-04T05:15:04.426Z,71.60
2023-05-04T05:17:31.384Z,71.60
2023-05-04T05:19:58.154Z,71.60
2023-05-04T05:22:24.986Z,71.50
2023-05-04T05:24:51.803Z,71.60
2023-05-04T05:27:18.570Z,71.60
2023-05-04T05:29:45.597Z,71.60
2023-05-04T05:32:12.256Z,71.60
2023-05-04T05:34:39.093Z,71.60
2023-05-04T05:37:05.839Z,71.60
2023-05-04T05:39:32.572Z,71.60
2023-05-04T05:41:59.396Z,71.60
2023-05-04T05:44:26.139Z,71.70
2023-05-04T05:46:52.896Z,71.70
2023-05-04T05:49:19.757Z,71.60
2023-05-04T05:51:46.431Z,71.70
2023-05-04T05:54:13.155Z,71.70
2023-05-04T05:56:39.878Z,71.70
2023-05-04T05:59:06.590Z,71.70
2023-05-04T06:01:33.373Z,71.80
2023-05-04T06:04:00.482Z,71.70
2023-05-04T06:06:27.391Z,71.80
2023-05-04T06:08:54.104Z,71.80
2023-05-04T06:11:21.507Z,71.80
2023-05-04T06:13:48.145Z,71.80
2023-05-04T06:16:14.911Z,71.80
2023-05-04T06:18:41.641Z,71.80
2023-05-04T06:21:08.734Z,71.80
2023-05-04T06:23:35.485Z,71.80
2023-05-04T06:26:02.431Z,71.90
2023-05-04T06:28:29.112Z,71.90
2023-05-04T06:30:55.799Z,71.90
2023-05-04T06:33:22.542Z,72.00
2023-05-04T06:35:49.249Z,72.00
2023-05-04T06:38:16.001Z,72.00
2023-05-04T06:40:42.759Z,72.10
2023-05-04T06:43:09.579Z,72.20
2023-05-04T06:45:36.782Z,72.20
2023-05-04T06:48:04.529Z,72.20
2023-05-04T06:50:31.558Z,72.30
2023-05-04T06:53:10.151Z,72.90
2023-05-04T06:55:37.510Z,72.30
2023-05-04T06:58:04.759Z,72.40
2023-05-04T07:00:32.088Z,72.50
2023-05-04T07:02:58.760Z,72.50
2023-05-04T07:05:25.967Z,72.50
2023-05-04T07:07:52.693Z,72.50
2023-05-04T07:10:19.637Z,72.50
2023-05-04T07:12:46.927Z,72.50
2023-05-04T07:15:13.801Z,72.60
2023-05-04T07:17:40.922Z,72.60
2023-05-04T07:20:08.252Z,72.60
2023-05-04T07:22:35.167Z,72.70
2023-05-04T07:25:02.202Z,72.60
2023-05-04T07:27:28.974Z,72.50
2023-05-04T07:29:56.274Z,72.60
2023-05-04T07:32:23.393Z,72.50
2023-05-04T07:34:50.201Z,72.50
2023-05-04T07:37:16.988Z,72.40
2023-05-04T07:39:43.727Z,72.40
2023-05-04T07:42:13.687Z,72.40
2023-05-04T07:44:41.328Z,72.30
2023-05-04T07:47:08.389Z,72.30
2023-05-04T07:49:35.108Z,72.40
2023-05-04T07:52:01.888Z,72.50
2023-05-04T07:54:28.653Z,72.50
2023-05-04T07:56:55.702Z,72.40
2023-05-04T07:59:22.632Z,72.30
2023-05-04T08:01:49.370Z,72.90
2023-05-04T08:04:16.089Z,72.30
2023-05-04T08:06:42.829Z,72.40
2023-05-04T08:09:09.554Z,72.30
2023-05-04T08:11:37.585Z,72.30
2023-05-04T08:14:04.393Z,72.30
2023-05-04T08:16:32.413Z,72.30
2023-05-04T08:19:01.171Z,72.20
2023-05-04T08:21:27.970Z,72.30
2023-05-04T08:23:54.642Z,72.30
2023-05-04T08:26:21.369Z,72.20
2023-05-04T08:28:48.291Z,72.10
2023-05-04T08:31:15.813Z,72.10
2023-05-04T08:33:42.522Z,72.20
2023-05-04T08:36:09.524Z,72.20
2023-05-04T08:38:36.622Z,72.20
2023-05-04T08:41:04.422Z,72.20
2023-05-04T08:43:35.199Z,72.20
2023-05-04T08:46:02.029Z,72.20
2023-05-04T08:48:28.776Z,72.10
2023-05-04T08:50:57.611Z,72.10
2023-05-04T08:53:25.798Z,72.20
2023-05-04T08:55:55.858Z,72.10
2023-05-04T08:58:24.564Z,72.10
2023-05-04T09:00:51.958Z,72.00
2023-05-04T09:03:19.789Z,72.00
2023-05-04T09:05:47.268Z,72.00
2023-05-04T09:08:14.942Z,72.00
2023-05-04T09:10:41.776Z,72.00
2023-05-04T09:13:08.602Z,71.90
2023-05-04T09:15:35.374Z,71.80
2023-05-04T09:18:04.652Z,71.90
2023-05-04T09:20:42.514Z,71.80
2023-05-04T09:23:09.626Z,71.70
2023-05-04T09:25:49.684Z,71.80
2023-05-04T09:28:17.322Z,71.80
2023-05-04T09:30:44.958Z,71.90
2023-05-04T09:33:11.763Z,71.80
2023-05-04T09:35:43.091Z,71.90
2023-05-04T09:38:10.104Z,71.90
2023-05-04T09:40:42.015Z,71.80
2023-05-04T09:43:09.426Z,71.80
2023-05-04T09:45:41.110Z,71.90
2023-05-04T09:48:28.985Z,72.00
2023-05-04T09:50:57.887Z,72.00
2023-05-04T09:53:26.420Z,72.00
2023-05-04T09:56:07.289Z,72.00
2023-05-04T09:58:35.048Z,71.90
2023-05-04T10:01:01.987Z,71.80
2023-05-04T10:03:29.610Z,71.80
2023-05-04T10:05:59.431Z,71.90
2023-05-04T10:08:27.669Z,71.90
2023-05-04T10:10:54.677Z,71.90
2023-05-04T10:13:21.421Z,71.70
2023-05-04T10:16:00.177Z,71.80
2023-05-04T10:18:29.739Z,71.70
2023-05-04T10:21:22.093Z,71.80
2023-05-04T10:24:02.447Z,71.80
2023-05-04T10:26:47.802Z,71.80
2023-05-04T10:29:29.805Z,71.80
2023-05-04T10:31:56.917Z,71.70
2023-05-04T10:34:29.518Z,71.70
2023-05-04T10:36:56.951Z,71.70
2023-05-04T10:39:34.230Z,71.70
2023-05-04T10:42:08.422Z,71.70
2023-05-04T10:44:54.942Z,71.80
2023-05-04T10:47:35.661Z,71.70
2023-05-04T10:50:08.389Z,71.70
2023-05-04T10:52:52.077Z,71.80
2023-05-04T10:55:19.846Z,71.80
2023-05-04T10:57:58.307Z,71.70
2023-05-04T11:00:37.013Z,71.70
2023-05-04T11:03:04.560Z,71.70
2023-05-04T11:05:50.781Z,71.80
2023-05-04T11:08:22.247Z,71.80
2023-05-04T11:11:00.819Z,71.80
2023-05-04T11:13:33.731Z,71.80
2023-05-04T11:16:00.923Z,71.80
2023-05-04T11:18:28.528Z,71.70
2023-05-04T11:20:56.138Z,71.70
2023-05-04T11:23:23.322Z,71.60
2023-05-04T11:25:50.052Z,71.70
2023-05-04T11:28:16.955Z,71.50
2023-05-04T11:30:46.251Z,71.50
2023-05-04T11:33:17.143Z,71.60
2023-05-04T11:35:44.632Z,71.60
2023-05-04T11:38:13.153Z,71.80
2023-05-04T11:40:47.141Z,71.60
2023-05-04T11:43:14.313Z,71.60
2023-05-04T11:45:41.648Z,71.70
2023-05-04T11:48:09.115Z,71.80
2023-05-04T11:50:36.165Z,71.60
2023-05-04T11:53:10.384Z,71.80
2023-05-04T11:55:38.126Z,71.50
2023-05-04T11:58:05.732Z,71.70
2023-05-04T12:00:40.744Z,71.60
2023-05-04T12:03:10.082Z,71.50
2023-05-04T12:05:37.293Z,71.60
2023-05-04T12:08:04.570Z,71.50
2023-05-04T12:10:34.594Z,71.50
2023-05-04T12:13:02.098Z,71.20
2023-05-04T12:15:34.202Z,71.40
2023-05-04T12:18:03.103Z,71.50
2023-05-04T12:20:30.949Z,71.60
2023-05-04T12:22:58.367Z,71.50
2023-05-04T12:25:25.206Z,71.40
2023-05-04T12:27:52.173Z,71.50
2023-05-04T12:30:18.916Z,71.50
2023-05-04T12:32:45.962Z,71.70
2023-05-04T12:35:12.778Z,71.60
2023-05-04T12:37:39.595Z,71.50
2023-05-04T12:40:21.054Z,71.60
2023-05-04T12:42:54.657Z,71.10
2023-05-04T12:45:22.701Z,71.20
2023-05-04T12:47:49.540Z,71.40
2023-05-04T12:50:16.466Z,71.40
2023-05-04T12:52:43.160Z,71.50
2023-05-04T12:55:09.930Z,71.50
2023-05-04T12:57:36.729Z,71.30
2023-05-04T13:00:05.996Z,71.40
2023-05-04T13:02:33.010Z,71.50
2023-05-04T13:04:59.760Z,71.50
2023-05-04T13:07:27.257Z,71.40
2023-05-04T13:09:54.119Z,71.50
2023-05-04T13:12:20.807Z,71.50
2023-05-04T13:14:47.620Z,71.50
2023-05-04T13:17:15.051Z,71.50
2023-05-04T13:19:41.770Z,71.50
2023-05-04T13:22:08.457Z,71.40
2023-05-04T13:24:35.116Z,71.80
2023-05-04T13:27:02.803Z,71.60
2023-05-04T13:29:29.524Z,71.50
2023-05-04T13:31:56.370Z,71.50
2023-05-04T13:34:23.693Z,71.50
2023-05-04T13:36:50.988Z,72.10
2023-05-04T13:39:21.708Z,71.50
2023-05-04T13:41:48.747Z,71.50
2023-05-04T13:44:15.421Z,71.50
2023-05-04T13:46:42.271Z,71.50
2023-05-04T13:49:09.157Z,71.50
2023-05-04T13:51:37.464Z,71.70
2023-05-04T13:54:04.951Z,71.60
2023-05-04T13:56:31.634Z,71.50
2023-05-04T13:58:58.310Z,71.60
2023-05-04T14:01:26.048Z,71.70
2023-05-04T14:03:54.016Z,71.80
2023-05-04T14:06:21.792Z,71.40
2023-05-04T14:08:48.436Z,71.60
2023-05-04T14:11:15.071Z,71.50
2023-05-04T14:13:41.718Z,71.50
2023-05-04T14:16:08.439Z,71.50
2023-05-04T14:18:35.136Z,71.50
2023-05-04T14:21:01.874Z,71.60
2023-05-04T14:23:28.575Z,71.50
2023-05-04T14:25:57.022Z,71.60
2023-05-04T14:28:23.957Z,71.50
2023-05-04T14:30:51.061Z,71.50
2023-05-04T14:33:17.969Z,71.40
2023-05-04T14:35:47.932Z,71.50
2023-05-04T14:38:15.301Z,71.60
2023-05-04T14:40:42.260Z,71.50
2023-05-04T14:43:08.996Z,71.60
2023-05-04T14:45:35.772Z,71.50
2023-05-04T14:48:02.536Z,71.60
2023-05-04T14:50:29.236Z,71.60
2023-05-04T14:52:55.972Z,71.60
2023-05-04T14:55:22.775Z,71.60
2023-05-04T14:57:49.476Z,71.70
2023-05-04T15:00:17.607Z,71.70
2023-05-04T15:02:44.365Z,71.70
2023-05-04T15:05:12.568Z,71.80
2023-05-04T15:07:39.736Z,71.80
2023-05-04T15:10:08.203Z,71.60
2023-05-04T15:12:36.057Z,71.70
2023-05-04T15:15:03.182Z,71.50
2023-05-04T15:17:30.880Z,71.80
2023-05-04T15:19:57.643Z,71.60
2023-05-04T15:22:24.338Z,71.60
2023-05-04T15:24:52.248Z,71.60
2023-05-04T15:27:18.952Z,71.60
2023-05-04T15:29:45.598Z,71.80
2023-05-04T15:32:12.330Z,71.60
2023-05-04T15:34:39.041Z,71.60
2023-05-04T15:37:05.747Z,71.70
2023-05-04T15:39:32.442Z,71.70
2023-05-04T15:41:59.138Z,71.60
2023-05-04T15:44:27.626Z,71.50
2023-05-04T15:46:54.442Z,71.50
2023-05-04T15:49:21.201Z,71.30
2023-05-04T15:51:47.999Z,71.50
2023-05-04T15:54:14.651Z,71.50
2023-05-04T15:56:42.009Z,71.50
2023-05-04T15:59:08.716Z,71.40
2023-05-04T16:01:35.576Z,71.20
2023-05-04T16:04:02.640Z,71.20
2023-05-04T16:06:29.452Z,71.20
2023-05-04T16:08:56.254Z,71.30
2023-05-04T16:11:22.911Z,71.50
2023-05-04T16:13:49.611Z,71.40
2023-05-04T16:16:16.300Z,71.50
2023-05-04T16:18:43.279Z,71.40
2023-05-04T16:21:10.127Z,71.40
2023-05-04T16:23:36.863Z,71.60
2023-05-04T16:26:03.670Z,71.60
2023-05-04T16:28:30.463Z,72.20
2023-05-04T16:30:57.821Z,71.40
2023-05-04T16:33:26.556Z,71.30
2023-05-04T16:35:53.368Z,71.30
2023-05-04T16:38:20.159Z,71.40
2023-05-04T16:40:46.806Z,71.50
2023-05-04T16:43:13.609Z,71.40
2023-05-04T16:45:40.311Z,71.40
2023-05-04T16:48:07.245Z,71.20
2023-05-04T16:50:34.104Z,71.30
2023-05-04T16:53:00.847Z,71.50
2023-05-04T16:55:27.617Z,71.50
2023-05-04T16:57:58.097Z,72.00
2023-05-04T17:00:25.020Z,71.60
2023-05-04T17:02:52.776Z,71.60
2023-05-04T17:05:20.405Z,71.70
2023-05-04T17:07:47.337Z,71.70
2023-05-04T17:10:18.635Z,71.60
2023-05-04T17:12:45.686Z,71.50
2023-05-04T17:15:12.878Z,71.80
2023-05-04T17:17:40.240Z,71.70
2023-05-04T17:20:09.300Z,71.60
2023-05-04T17:22:36.970Z,71.60
2023-05-04T17:25:03.997Z,71.60
2023-05-04T17:27:31.048Z,71.60
2023-05-04T17:29:57.802Z,71.60
2023-05-04T17:32:24.523Z,71.70
2023-05-04T17:34:51.306Z,71.70
2023-05-04T17:37:18.650Z,71.60
2023-05-04T17:39:47.025Z,71.60
2023-05-04T17:42:15.950Z,71.60
2023-05-04T17:44:42.756Z,71.70
2023-05-04T17:47:09.758Z,71.70
2023-05-04T17:49:36.507Z,71.70
2023-05-04T17:52:03.316Z,71.70
2023-05-04T17:54:30.242Z,71.70
2023-05-04T17:56:56.911Z,71.80
2023-05-04T17:59:23.618Z,71.90
2023-05-04T18:01:50.390Z,71.90
2023-05-04T18:04:17.260Z,71.90
2023-05-04T18:06:43.941Z,72.00
2023-05-04T18:09:11.580Z,72.00
2023-05-04T18:11:38.287Z,72.00
2023-05-04T18:14:04.956Z,71.80
2023-05-04T18:16:35.879Z,71.90
2023-05-04T18:19:02.948Z,72.00
2023-05-04T18:21:29.620Z,72.00
2023-05-04T18:23:56.305Z,72.00
2023-05-04T18:26:23.290Z,72.10
2023-05-04T18:28:50.322Z,71.90
2023-05-04T18:31:17.455Z,72.00
2023-05-04T18:33:44.385Z,72.00
2023-05-04T18:36:11.127Z,72.10
2023-05-04T18:38:37.809Z,72.20
2023-05-04T18:41:04.978Z,72.00
2023-05-04T18:43:31.884Z,72.00
2023-05-04T18:46:05.513Z,72.10
2023-05-04T18:48:32.249Z,72.20
2023-05-04T18:50:59.257Z,72.10
2023-05-04T18:53:26.495Z,72.30
2023-05-04T18:56:04.118Z,72.20
2023-05-04T18:58:31.020Z,72.20
2023-05-04T19:00:58.235Z,72.10
2023-05-04T19:03:25.426Z,72.30
2023-05-04T19:05:52.631Z,72.30
2023-05-04T19:08:19.625Z,72.40
2023-05-04T19:10:47.288Z,72.30
2023-05-04T19:13:15.873Z,72.20
2023-05-04T19:15:43.415Z,72.40
2023-05-04T19:18:10.322Z,72.40
2023-05-04T19:20:37.642Z,72.40
2023-05-04T19:23:04.449Z,72.50
2023-05-04T19:25:35.205Z,72.40
2023-05-04T19:28:08.931Z,73.10
2023-05-04T19:30:36.827Z,72.50
2023-05-04T19:33:04.372Z,72.50
2023-05-04T19:35:31.202Z,72.40
2023-05-04T19:37:57.897Z,72.50
2023-05-04T19:40:24.872Z,72.40
2023-05-04T19:42:51.637Z,72.40
2023-05-04T19:45:18.375Z,72.40
2023-05-04T19:47:45.504Z,72.40
2023-05-04T19:50:13.984Z,72.40
2023-05-04T19:52:40.874Z,72.40
2023-05-04T19:55:08.873Z,72.50
2023-05-04T19:57:36.597Z,72.40
2023-05-04T20:00:04.663Z,72.40
2023-05-04T20:02:39.168Z,72.50
2023-05-04T20:05:06.305Z,72.40
2023-05-04T20:07:33.126Z,72.40
2023-05-04T20:09:59.835Z,72.30
2023-05-04T20:12:26.966Z,72.40
2023-05-04T20:14:53.639Z,72.40
2023-05-04T20:17:20.826Z,72.50
2023-05-04T20:19:48.270Z,72.50
2023-05-04T20:22:15.383Z,73.00
2023-05-04T20:24:42.462Z,72.50
2023-05-04T20:27:09.263Z,72.50
2023-05-04T20:29:36.134Z,72.50
2023-05-04T20:32:05.063Z,72.50
2023-05-04T20:34:32.025Z,72.50
2023-05-04T20:36:58.838Z,72.50
2023-05-04T20:39:25.565Z,72.50
2023-05-04T20:41:52.262Z,72.50
2023-05-04T20:44:19.028Z,72.50
2023-05-04T20:46:45.737Z,72.50
2023-05-04T20:49:12.582Z,72.50
2023-05-04T20:51:39.454Z,72.50
2023-05-04T20:54:06.270Z,72.50
2023-05-04T20:56:33.030Z,72.50
2023-05-04T20:58:59.800Z,72.50
2023-05-04T21:01:26.611Z,72.50
2023-05-04T21:03:53.506Z,72.50
2023-05-04T21:06:20.288Z,72.50
2023-05-04T21:08:47.071Z,72.40
2023-05-04T21:11:13.795Z,72.50
2023-05-04T21:13:40.531Z,72.50
2023-05-04T21:16:07.832Z,72.50
2023-05-04T21:18:35.659Z,72.50
2023-05-04T21:21:05.778Z,72.50
2023-05-04T21:23:32.543Z,72.50
2023-05-04T21:26:02.877Z,72.40
2023-05-04T21:28:30.320Z,72.40
2023-05-04T21:30:57.607Z,73.10
2023-05-04T21:33:24.335Z,72.50
2023-05-04T21:35:51.023Z,72.40
2023-05-04T21:38:19.571Z,72.50
2023-05-04T21:40:48.444Z,72.50
2023-05-04T21:43:15.108Z,72.40
2023-05-04T21:45:41.893Z,72.50
2023-05-04T21:48:08.713Z,72.40
2023-05-04T21:50:35.424Z,72.40
2023-05-04T21:53:02.110Z,72.40
2023-05-04T21:55:30.300Z,72.50
2023-05-04T21:57:57.310Z,72.40
2023-05-04T22:00:24.237Z,72.40
2023-05-04T22:02:53.836Z,72.40
2023-05-04T22:05:22.169Z,72.40
2023-05-04T22:07:49.630Z,72.40
2023-05-04T22:10:16.466Z,72.40
2023-05-04T22:12:43.219Z,72.40
2023-05-04T22:15:10.788Z,72.50
2023-05-04T22:17:37.527Z,72.40
2023-05-04T22:20:05.035Z,72.40
2023-05-04T22:22:31.800Z,72.40
2023-05-04T22:24:58.490Z,72.50
2023-05-04T22:27:25.333Z,72.40
2023-05-04T22:29:52.051Z,72.40
2023-05-04T22:32:18.819Z,72.40
2023-05-04T22:34:46.116Z,72.40
2023-05-04T22:37:12.796Z,72.40
2023-05-04T22:39:39.478Z,72.40
2023-05-04T22:42:06.244Z,72.40
2023-05-04T22:44:33.773Z,72.50
2023-05-04T22:47:00.805Z,72.50
2023-05-04T22:49:27.479Z,72.40
2023-05-04T22:51:54.213Z,72.50
2023-05-04T22:54:20.874Z,72.60
2023-05-04T22:56:47.615Z,72.40
2023-05-04T22:59:14.277Z,72.40
2023-05-04T23:01:43.251Z,72.40
2023-05-04T23:04:11.397Z,72.50
2023-05-04T23:06:38.632Z,72.40
2023-05-04T23:09:05.406Z,72.50
2023-05-04T23:11:32.436Z,72.40
2023-05-04T23:13:59.328Z,72.50
2023-05-04T23:16:26.113Z,72.50
2023-05-04T23:18:52.840Z,72.40
2023-05-04T23:21:19.578Z,72.40
2023-05-04T23:23:46.261Z,72.50
2023-05-04T23:26:12.915Z,72.40
2023-05-04T23:28:39.575Z,72.40
2023-05-04T23:31:06.305Z,72.40
2023-05-04T23:33:32.999Z,72.50
2023-05-04T23:35:59.686Z,72.40
2023-05-04T23:38:26.513Z,72.40
2023-05-04T23:40:53.796Z,72.40
2023-05-04T23:43:23.431Z,72.40
2023-05-04T23:45:58.134Z,72.30
2023-05-04T23:48:24.854Z,72.30
2023-05-04T23:50:57.371Z,72.40
2023-05-04T23:53:24.683Z,72.40
2023-05-04T23:56:03.826Z,72.40
2023-05-04T23:58:32.829Z,72.30
